METAR AND TAF INFORMATION
METAR FOR LIBR
ADDS - METARS form results

(0946 UTC 23 February 2020)
Data provider http://aviationweather.gov/metar/data/
 
METAR text: LIBR 230920Z 31012KT CAVOK 13/05 Q1029
Conditions at: LIBR (BRINDISI/CASALE , IT) observed 0920 UTC 23 February 2020
Temperature: 13.0°C (55°F)
Dewpoint: 5.0°C (41°F) [RH = 58%]
Pressure (altimeter): 30.38 inches Hg (1029.0 mb)
Winds: from the NW (310 degrees) at 14 MPH (12 knots; 6.2 m/s)
Visibility: 6 or more miles (10+ km)
Ceiling: ceiling and visibility are OK
Clouds: unknown
Weather: no significant weather observed at this time

METAR text: LIBR 230850Z 30010KT CAVOK 13/04 Q1028
Conditions at: LIBR (BRINDISI/CASALE , IT) observed 0850 UTC 23 February 2020
Temperature: 13.0°C (55°F)
Dewpoint: 4.0°C (39°F) [RH = 54%]
Pressure (altimeter): 30.35 inches Hg (1028.0 mb)
Winds: from the WNW (300 degrees) at 12 MPH (10 knots; 5.1 m/s)
Visibility: 6 or more miles (10+ km)
Ceiling: ceiling and visibility are OK
Clouds: unknown
Weather: no significant weather observed at this time

Forecast for: LIBR (BRINDISI/CASALE , IT)
Text: TAF LIBR 230500Z 2306/2406 34011KT CAVOK
Forecast period: 0600 to 1200 UTC 23 February 2020
Forecast type: FROM: standard forecast or significant change
Winds: from the NNW (340 degrees) at 13 MPH (11 knots; 5.7 m/s)
Visibility: 6 or more miles 10+ km)
Ceiling: unknown
Clouds: missing
Weather: NSW  (no significant weather)
Text: BECMG 2312/2314 VRB05KT
Forecast period: 1200 UTC 23 February 2020 to 0600 UTC 24 February 2020
Forecast type: BECOMING: Conditions expected to become as follows by 1400 UTC 23 February 2020
Winds: variable direction winds at 6 MPH (5 knots; 2.6 m/s)
Visibility: 6 or more miles 10+ km)
Ceiling: unknown
Clouds: missing
Weather: NSW  (no significant weather)

 AIRPORT MAP

 RUNWAY INFORMATION
Runway 05 Runway length 6132 ft Runway width 148 ft
Runway elevation 46 ft Runway displaced threshold 0 ft Runway heading 53
Runway 23 Runway length 6132 ft Runway width 148 ft
Runway elevation 13 ft Runway displaced threshold 230 ft Runway heading 233
Runway 13 Runway length 8307 ft Runway width 148 ft
Runway elevation 29 ft Runway displaced threshold 0 ft Runway heading 137
Runway 31 Runway length 8307 ft Runway width 148 ft
Runway elevation 26 ft Runway displaced threshold 0 ft Runway heading 317

 AIRPORT FREQUENCIES
Type APP Name BRINDISI A Frequency 36.365 MHZ
Type APP Name BRINDISI A Frequency 118.4 MHZ
Type GND Name GND Frequency 31.355 MHZ
Type ILS RWY 32 Name Frequency 109.5 MHZ
Type TWR Name BRINDISI T Frequency 118.1 MHZ

 AIRPORT NEAR NAVIGATION AIDS
Type VORTAC Name Brindisi Frequency 113200 KHZ
Type NDB Name Brindisi Frequency 364 KHZ



Powered by Heron Airways VA. All Rights Reserved © 2009 [v2.6.2]